sensor_id;sensor_type;location;lat;lon;timestamp;pressure;altitude;pressure_sealevel;temperature;humidity
22647;BME280;11490;42.726;23.268;2023-02-16T00:01:42;96504.19;;;-0.01;94.45
22647;BME280;11490;42.726;23.268;2023-02-16T00:04:16;96483.22;;;-0.01;93.45
22647;BME280;11490;42.726;23.268;2023-02-16T00:06:42;96494.84;;;-0.32;94.62
22647;BME280;11490;42.726;23.268;2023-02-16T00:09:08;96479.09;;;-0.52;95.14
22647;BME280;11490;42.726;23.268;2023-02-16T00:11:34;96474.66;;;-0.22;95.67
22647;BME280;11490;42.726;23.268;2023-02-16T00:14:21;96490.00;;;-0.37;94.66
22647;BME280;11490;42.726;23.268;2023-02-16T00:16:51;96478.72;;;-0.47;96.59
22647;BME280;11490;42.726;23.268;2023-02-16T00:21:43;96475.78;;;-0.73;97.69
22647;BME280;11490;42.726;23.268;2023-02-16T00:24:08;96447.66;;;-0.52;96.37
22647;BME280;11490;42.726;23.268;2023-02-16T00:26:34;96492.34;;;-0.24;94.66
22647;BME280;11490;42.726;23.268;2023-02-16T00:29:00;96483.81;;;-0.55;96.15
22647;BME280;11490;42.726;23.268;2023-02-16T00:31:27;96493.16;;;-0.53;95.03
22647;BME280;11490;42.726;23.268;2023-02-16T00:33:56;96482.69;;;-0.43;95.58
22647;BME280;11490;42.726;23.268;2023-02-16T00:36:22;96489.56;;;-0.13;94.49
22647;BME280;11490;42.726;23.268;2023-02-16T00:38:47;96476.63;;;-0.63;95.95
22647;BME280;11490;42.726;23.268;2023-02-16T00:41:17;96497.00;;;-0.76;96.94
22647;BME280;11490;42.726;23.268;2023-02-16T00:44:02;96492.91;;;-0.50;97.08
22647;BME280;11490;42.726;23.268;2023-02-16T00:46:27;96479.66;;;-0.48;96.44
22647;BME280;11490;42.726;23.268;2023-02-16T00:48:53;96495.34;;;-0.77;96.21
22647;BME280;11490;42.726;23.268;2023-02-16T00:51:18;96493.44;;;-0.94;97.14
22647;BME280;11490;42.726;23.268;2023-02-16T00:53:43;96491.22;;;-0.89;98.58
22647;BME280;11490;42.726;23.268;2023-02-16T00:56:12;96475.38;;;-0.68;98.32
22647;BME280;11490;42.726;23.268;2023-02-16T00:58:40;96473.59;;;-0.87;97.86
22647;BME280;11490;42.726;23.268;2023-02-16T01:01:09;96490.97;;;-0.86;98.02
22647;BME280;11490;42.726;23.268;2023-02-16T01:03:36;96477.72;;;-0.65;97.18
22647;BME280;11490;42.726;23.268;2023-02-16T01:06:02;96490.97;;;-0.67;96.29
22647;BME280;11490;42.726;23.268;2023-02-16T01:08:46;96467.25;;;-0.75;96.11
22647;BME280;11490;42.726;23.268;2023-02-16T01:11:30;96475.53;;;-0.51;96.04
22647;BME280;11490;42.726;23.268;2023-02-16T01:13:56;96477.44;;;-0.72;95.76
22647;BME280;11490;42.726;23.268;2023-02-16T01:16:36;96471.66;;;-0.95;97.26
22647;BME280;11490;42.726;23.268;2023-02-16T01:19:02;96464.47;;;-1.02;98.59
22647;BME280;11490;42.726;23.268;2023-02-16T01:21:28;96458.69;;;-0.77;97.88
22647;BME280;11490;42.726;23.268;2023-02-16T01:23:53;96451.25;;;-0.82;96.82
22647;BME280;11490;42.726;23.268;2023-02-16T01:26:19;96456.75;;;-1.04;97.93
22647;BME280;11490;42.726;23.268;2023-02-16T01:28:45;96434.97;;;-1.04;98.14
22647;BME280;11490;42.726;23.268;2023-02-16T01:31:12;96458.44;;;-0.55;96.49
22647;BME280;11490;42.726;23.268;2023-02-16T01:33:39;96440.91;;;-0.73;95.93
22647;BME280;11490;42.726;23.268;2023-02-16T01:36:06;96449.34;;;-0.70;95.05
22647;BME280;11490;42.726;23.268;2023-02-16T01:38:43;96439.94;;;-0.82;94.98
22647;BME280;11490;42.726;23.268;2023-02-16T01:44:13;96449.97;;;-1.16;97.06
22647;BME280;11490;42.726;23.268;2023-02-16T01:46:53;96420.63;;;-1.10;98.22
22647;BME280;11490;42.726;23.268;2023-02-16T01:49:20;96441.47;;;-0.70;96.95
22647;BME280;11490;42.726;23.268;2023-02-16T01:52:06;96445.69;;;-1.07;97.02
22647;BME280;11490;42.726;23.268;2023-02-16T01:54:38;96441.16;;;-1.25;97.65
22647;BME280;11490;42.726;23.268;2023-02-16T02:00:02;96427.81;;;-0.83;96.11
22647;BME280;11490;42.726;23.268;2023-02-16T02:02:35;96423.09;;;-1.28;96.36
22647;BME280;11490;42.726;23.268;2023-02-16T02:05:14;96443.22;;;-1.19;96.83
22647;BME280;11490;42.726;23.268;2023-02-16T02:13:33;96448.31;;;-1.17;96.66
22647;BME280;11490;42.726;23.268;2023-02-16T02:16:00;96457.72;;;-0.76;95.83
22647;BME280;11490;42.726;23.268;2023-02-16T02:18:28;96442.56;;;-0.82;93.52
22647;BME280;11490;42.726;23.268;2023-02-16T02:21:15;96443.47;;;-1.22;94.73
22647;BME280;11490;42.726;23.268;2023-02-16T02:29:39;96431.09;;;-1.20;96.42
22647;BME280;11490;42.726;23.268;2023-02-16T02:32:16;96438.53;;;-1.25;97.15
22647;BME280;11490;42.726;23.268;2023-02-16T02:34:57;96415.06;;;-1.55;95.97
22647;BME280;11490;42.726;23.268;2023-02-16T02:47:46;96430.97;;;-1.18;96.18
22647;BME280;11490;42.726;23.268;2023-02-16T02:50:33;96442.00;;;-1.55;96.53
22647;BME280;11490;42.726;23.268;2023-02-16T02:53:07;96439.34;;;-1.34;97.47
22647;BME280;11490;42.726;23.268;2023-02-16T02:55:35;96443.81;;;-1.55;96.67
22647;BME280;11490;42.726;23.268;2023-02-16T02:58:23;96443.63;;;-1.73;96.83
22647;BME280;11490;42.726;23.268;2023-02-16T03:01:10;96456.88;;;-1.85;98.42
22647;BME280;11490;42.726;23.268;2023-02-16T03:03:43;96395.53;;;-1.81;97.88
22647;BME280;11490;42.726;23.268;2023-02-16T03:06:15;96446.88;;;-1.80;96.95
22647;BME280;11490;42.726;23.268;2023-02-16T03:08:44;96405.53;;;-1.96;97.95
22647;BME280;11490;42.726;23.268;2023-02-16T03:11:21;96451.22;;;-1.90;96.68
22647;BME280;11490;42.726;23.268;2023-02-16T03:14:19;96447.72;;;-1.70;98.26
22647;BME280;11490;42.726;23.268;2023-02-16T03:16:50;96448.25;;;-1.76;96.93
22647;BME280;11490;42.726;23.268;2023-02-16T03:19:35;96439.41;;;-1.85;96.79
22647;BME280;11490;42.726;23.268;2023-02-16T03:22:21;96434.31;;;-1.56;96.10
22647;BME280;11490;42.726;23.268;2023-02-16T03:25:05;96437.94;;;-2.08;97.24
22647;BME280;11490;42.726;23.268;2023-02-16T03:27:49;96449.56;;;-1.91;97.54
22647;BME280;11490;42.726;23.268;2023-02-16T03:30:33;96437.28;;;-1.70;97.09
22647;BME280;11490;42.726;23.268;2023-02-16T03:32:59;96430.91;;;-1.87;96.57
22647;BME280;11490;42.726;23.268;2023-02-16T03:35:25;96432.44;;;-2.05;97.23
22647;BME280;11490;42.726;23.268;2023-02-16T03:37:50;96419.81;;;-2.00;98.21
22647;BME280;11490;42.726;23.268;2023-02-16T03:40:16;96439.75;;;-1.78;97.00
22647;BME280;11490;42.726;23.268;2023-02-16T03:42:59;96430.97;;;-1.68;95.60
22647;BME280;11490;42.726;23.268;2023-02-16T03:45:25;96427.88;;;-1.82;94.80
22647;BME280;11490;42.726;23.268;2023-02-16T03:47:51;96428.00;;;-2.14;97.32
22647;BME280;11490;42.726;23.268;2023-02-16T03:50:17;96441.66;;;-2.11;96.67
22647;BME280;11490;42.726;23.268;2023-02-16T03:52:42;96418.38;;;-1.83;96.58
22647;BME280;11490;42.726;23.268;2023-02-16T03:55:08;96443.34;;;-1.70;94.87
22647;BME280;11490;42.726;23.268;2023-02-16T03:57:33;96441.84;;;-2.03;96.49
22647;BME280;11490;42.726;23.268;2023-02-16T03:59:59;96434.78;;;-1.81;96.46
22647;BME280;11490;42.726;23.268;2023-02-16T04:02:26;96428.84;;;-2.14;95.97
22647;BME280;11490;42.726;23.268;2023-02-16T04:04:51;96441.66;;;-2.11;97.46
22647;BME280;11490;42.726;23.268;2023-02-16T04:07:17;96419.75;;;-2.40;98.30
22647;BME280;11490;42.726;23.268;2023-02-16T04:09:42;96437.53;;;-2.34;99.27
22647;BME280;11490;42.726;23.268;2023-02-16T04:12:08;96405.13;;;-2.22;99.92
22647;BME280;11490;42.726;23.268;2023-02-16T04:14:53;96424.75;;;-2.07;98.54
22647;BME280;11490;42.726;23.268;2023-02-16T04:17:19;96432.75;;;-1.99;97.62
22647;BME280;11490;42.726;23.268;2023-02-16T04:19:44;96429.72;;;-2.04;97.82
22647;BME280;11490;42.726;23.268;2023-02-16T04:22:10;96403.63;;;-2.45;98.62
22647;BME280;11490;42.726;23.268;2023-02-16T04:24:35;96430.84;;;-1.97;98.53
22647;BME280;11490;42.726;23.268;2023-02-16T04:27:02;96417.34;;;-1.71;97.58
22647;BME280;11490;42.726;23.268;2023-02-16T04:29:27;96420.13;;;-1.94;97.00
22647;BME280;11490;42.726;23.268;2023-02-16T04:31:53;96423.19;;;-1.88;96.83
22647;BME280;11490;42.726;23.268;2023-02-16T04:34:18;96396.59;;;-1.94;97.05
22647;BME280;11490;42.726;23.268;2023-02-16T04:36:44;96427.88;;;-2.13;97.13
22647;BME280;11490;42.726;23.268;2023-02-16T04:39:09;96418.78;;;-1.88;97.41
22647;BME280;11490;42.726;23.268;2023-02-16T04:41:35;96434.53;;;-1.99;97.24
22647;BME280;11490;42.726;23.268;2023-02-16T04:44:00;96407.19;;;-1.95;96.83
22647;BME280;11490;42.726;23.268;2023-02-16T04:46:25;96380.44;;;-2.08;95.17
22647;BME280;11490;42.726;23.268;2023-02-16T04:48:51;96426.31;;;-2.25;97.05
22647;BME280;11490;42.726;23.268;2023-02-16T04:51:16;96414.47;;;-1.99;96.72
22647;BME280;11490;42.726;23.268;2023-02-16T04:53:41;96399.31;;;-2.05;95.91
22647;BME280;11490;42.726;23.268;2023-02-16T04:56:11;96429.53;;;-2.12;96.64
22647;BME280;11490;42.726;23.268;2023-02-16T04:58:37;96446.41;;;-2.16;97.95
22647;BME280;11490;42.726;23.268;2023-02-16T05:01:02;96441.34;;;-1.87;97.61
22647;BME280;11490;42.726;23.268;2023-02-16T05:03:28;96430.66;;;-2.05;96.01
22647;BME280;11490;42.726;23.268;2023-02-16T05:05:53;96423.72;;;-1.95;96.24
22647;BME280;11490;42.726;23.268;2023-02-16T05:08:18;96433.53;;;-2.08;95.02
22647;BME280;11490;42.726;23.268;2023-02-16T05:10:44;96428.31;;;-2.08;94.75
22647;BME280;11490;42.726;23.268;2023-02-16T05:13:10;96447.84;;;-2.12;95.76
22647;BME280;11490;42.726;23.268;2023-02-16T05:15:55;96440.41;;;-2.07;94.72
22647;BME280;11490;42.726;23.268;2023-02-16T05:18:20;96460.56;;;-1.98;94.13
22647;BME280;11490;42.726;23.268;2023-02-16T05:20:45;96445.94;;;-2.51;95.89
22647;BME280;11490;42.726;23.268;2023-02-16T05:23:29;96442.34;;;-2.29;97.29
22647;BME280;11490;42.726;23.268;2023-02-16T05:25:55;96453.44;;;-2.37;97.67
22647;BME280;11490;42.726;23.268;2023-02-16T05:28:21;96462.09;;;-2.16;96.95
22647;BME280;11490;42.726;23.268;2023-02-16T05:30:47;96450.72;;;-2.36;96.06
22647;BME280;11490;42.726;23.268;2023-02-16T05:33:12;96449.13;;;-2.27;94.71
22647;BME280;11490;42.726;23.268;2023-02-16T05:35:41;96428.78;;;-2.44;95.32
22647;BME280;11490;42.726;23.268;2023-02-16T05:38:06;96424.59;;;-2.56;94.78
22647;BME280;11490;42.726;23.268;2023-02-16T05:40:31;96445.28;;;-2.23;95.17
22647;BME280;11490;42.726;23.268;2023-02-16T05:42:57;96448.44;;;-1.99;94.17
22647;BME280;11490;42.726;23.268;2023-02-16T05:45:22;96453.06;;;-2.12;93.18
22647;BME280;11490;42.726;23.268;2023-02-16T05:47:47;96460.13;;;-2.03;93.25
22647;BME280;11490;42.726;23.268;2023-02-16T05:50:13;96447.84;;;-2.12;93.06
22647;BME280;11490;42.726;23.268;2023-02-16T05:52:38;96479.28;;;-1.92;94.70
22647;BME280;11490;42.726;23.268;2023-02-16T05:55:04;96470.75;;;-1.95;93.57
22647;BME280;11490;42.726;23.268;2023-02-16T05:57:29;96465.78;;;-1.98;93.27
22647;BME280;11490;42.726;23.268;2023-02-16T05:59:57;96432.53;;;-2.37;92.84
22647;BME280;11490;42.726;23.268;2023-02-16T06:02:23;96454.56;;;-1.88;93.52
22647;BME280;11490;42.726;23.268;2023-02-16T06:04:48;96470.84;;;-1.75;92.30
22647;BME280;11490;42.726;23.268;2023-02-16T06:07:13;96484.69;;;-1.54;91.51
22647;BME280;11490;42.726;23.268;2023-02-16T06:09:38;96489.72;;;-1.41;92.42
22647;BME280;11490;42.726;23.268;2023-02-16T06:12:04;96480.41;;;-1.25;91.49
22647;BME280;11490;42.726;23.268;2023-02-16T06:14:29;96486.19;;;-1.21;90.80
22647;BME280;11490;42.726;23.268;2023-02-16T06:16:55;96487.56;;;-1.27;92.17
22647;BME280;11490;42.726;23.268;2023-02-16T06:19:21;96505.59;;;-1.24;91.98
22647;BME280;11490;42.726;23.268;2023-02-16T06:21:47;96490.38;;;-1.09;91.74
22647;BME280;11490;42.726;23.268;2023-02-16T06:24:12;96492.56;;;-1.04;92.69
22647;BME280;11490;42.726;23.268;2023-02-16T06:26:38;96504.19;;;-0.78;92.53
22647;BME280;11490;42.726;23.268;2023-02-16T06:29:04;96496.75;;;-0.34;91.45
22647;BME280;11490;42.726;23.268;2023-02-16T06:31:30;96501.44;;;-0.09;89.60
22647;BME280;11490;42.726;23.268;2023-02-16T06:33:55;96501.72;;;-0.51;90.70
22647;BME280;11490;42.726;23.268;2023-02-16T06:36:21;96509.44;;;-0.20;91.04
22647;BME280;11490;42.726;23.268;2023-02-16T06:38:47;96507.69;;;0.27;89.42
22647;BME280;11490;42.726;23.268;2023-02-16T06:41:13;96504.81;;;0.67;88.84
22647;BME280;11490;42.726;23.268;2023-02-16T06:43:58;96499.72;;;0.93;87.90
22647;BME280;11490;42.726;23.268;2023-02-16T06:46:24;96520.34;;;1.86;84.30
22647;BME280;11490;42.726;23.268;2023-02-16T06:48:49;96503.72;;;2.47;81.97
22647;BME280;11490;42.726;23.268;2023-02-16T06:51:18;96508.31;;;3.21;78.32
22647;BME280;11490;42.726;23.268;2023-02-16T06:53:44;96517.19;;;3.94;75.60
22647;BME280;11490;42.726;23.268;2023-02-16T06:56:10;96516.69;;;4.39;72.88
22647;BME280;11490;42.726;23.268;2023-02-16T06:58:35;96520.00;;;4.96;71.10
22647;BME280;11490;42.726;23.268;2023-02-16T07:01:00;96514.06;;;5.41;69.04
22647;BME280;11490;42.726;23.268;2023-02-16T07:03:26;96513.84;;;5.74;67.87
22647;BME280;11490;42.726;23.268;2023-02-16T07:05:51;96516.06;;;6.16;66.87
22647;BME280;11490;42.726;23.268;2023-02-16T07:08:16;96513.28;;;5.87;66.92
22647;BME280;11490;42.726;23.268;2023-02-16T07:10:44;96481.06;;;4.82;69.12
22647;BME280;11490;42.726;23.268;2023-02-16T07:13:10;96486.81;;;4.31;72.63
22647;BME280;11490;42.726;23.268;2023-02-16T07:15:35;96476.22;;;3.33;75.30
22647;BME280;11490;42.726;23.268;2023-02-16T07:18:00;96487.91;;;3.31;77.48
22647;BME280;11490;42.726;23.268;2023-02-16T07:20:27;96460.13;;;3.77;76.41
22647;BME280;11490;42.726;23.268;2023-02-16T07:22:53;96477.09;;;4.07;73.69
22647;BME280;11490;42.726;23.268;2023-02-16T07:25:18;96460.13;;;3.69;75.21
22647;BME280;11490;42.726;23.268;2023-02-16T07:27:44;96451.88;;;3.64;75.94
22647;BME280;11490;42.726;23.268;2023-02-16T07:30:10;96465.72;;;3.66;76.41
22647;BME280;11490;42.726;23.268;2023-02-16T07:32:36;96483.53;;;3.56;78.24
22647;BME280;11490;42.726;23.268;2023-02-16T07:35:01;96475.19;;;3.26;78.85
22647;BME280;11490;42.726;23.268;2023-02-16T07:37:27;96460.59;;;2.90;80.06
22647;BME280;11490;42.726;23.268;2023-02-16T07:39:52;96466.84;;;2.89;82.39
22647;BME280;11490;42.726;23.268;2023-02-16T07:42:19;96454.31;;;2.83;81.67
22647;BME280;11490;42.726;23.268;2023-02-16T07:44:44;96475.78;;;2.28;83.91
22647;BME280;11490;42.726;23.268;2023-02-16T07:47:09;96460.94;;;1.40;88.16
22647;BME280;11490;42.726;23.268;2023-02-16T07:49:37;96450.53;;;2.17;87.59
22647;BME280;11490;42.726;23.268;2023-02-16T07:52:03;96472.69;;;2.66;85.00
22647;BME280;11490;42.726;23.268;2023-02-16T07:54:30;96474.78;;;2.97;84.48
22647;BME280;11490;42.726;23.268;2023-02-16T07:56:56;96464.25;;;2.97;83.03
22647;BME280;11490;42.726;23.268;2023-02-16T07:59:21;96477.97;;;2.66;83.39
22647;BME280;11490;42.726;23.268;2023-02-16T08:01:46;96469.09;;;1.90;86.46
22647;BME280;11490;42.726;23.268;2023-02-16T08:04:12;96470.34;;;2.55;87.02
22647;BME280;11490;42.726;23.268;2023-02-16T08:06:37;96479.31;;;2.70;85.78
22647;BME280;11490;42.726;23.268;2023-02-16T08:09:03;96473.47;;;2.93;85.23
22647;BME280;11490;42.726;23.268;2023-02-16T08:11:28;96422.81;;;2.65;84.95
22647;BME280;11490;42.726;23.268;2023-02-16T08:13:54;96483.22;;;2.66;85.56
22647;BME280;11490;42.726;23.268;2023-02-16T08:16:22;96450.72;;;2.84;85.55
22647;BME280;11490;42.726;23.268;2023-02-16T08:18:48;96494.66;;;3.17;85.28
22647;BME280;11490;42.726;23.268;2023-02-16T08:21:20;96489.34;;;3.09;84.97
22647;BME280;11490;42.726;23.268;2023-02-16T08:23:55;96481.81;;;3.30;87.01
22647;BME280;11490;42.726;23.268;2023-02-16T08:26:22;96497.91;;;4.10;83.77
22647;BME280;11490;42.726;23.268;2023-02-16T08:28:48;96489.47;;;4.31;82.20
22647;BME280;11490;42.726;23.268;2023-02-16T08:31:22;96486.25;;;5.68;78.32
22647;BME280;11490;42.726;23.268;2023-02-16T08:33:49;96487.38;;;7.01;72.94
22647;BME280;11490;42.726;23.268;2023-02-16T08:36:35;96498.47;;;7.55;69.27
22647;BME280;11490;42.726;23.268;2023-02-16T08:39:05;96503.81;;;8.68;65.83
22647;BME280;11490;42.726;23.268;2023-02-16T08:41:33;96496.75;;;8.05;67.10
22647;BME280;11490;42.726;23.268;2023-02-16T08:43:59;96509.31;;;8.95;64.16
22647;BME280;11490;42.726;23.268;2023-02-16T08:46:26;96497.94;;;9.14;61.47
22647;BME280;11490;42.726;23.268;2023-02-16T08:48:54;96504.41;;;9.87;61.05
22647;BME280;11490;42.726;23.268;2023-02-16T08:51:22;96494.09;;;9.71;59.76
22647;BME280;11490;42.726;23.268;2023-02-16T08:53:49;96488.94;;;10.36;57.86
22647;BME280;11490;42.726;23.268;2023-02-16T08:56:14;96460.84;;;9.53;59.54
22647;BME280;11490;42.726;23.268;2023-02-16T08:58:41;96482.19;;;9.60;60.81
22647;BME280;11490;42.726;23.268;2023-02-16T09:01:07;96445.00;;;10.06;58.38
22647;BME280;11490;42.726;23.268;2023-02-16T09:03:38;96477.66;;;9.60;58.61
22647;BME280;11490;42.726;23.268;2023-02-16T09:06:06;96498.91;;;9.41;59.81
22647;BME280;11490;42.726;23.268;2023-02-16T09:08:33;96482.97;;;9.47;61.16
22647;BME280;11490;42.726;23.268;2023-02-16T09:11:02;96489.31;;;10.47;58.72
22647;BME280;11490;42.726;23.268;2023-02-16T09:13:28;96465.06;;;10.15;56.76
22647;BME280;11490;42.726;23.268;2023-02-16T09:15:53;96468.28;;;9.64;59.09
22647;BME280;11490;42.726;23.268;2023-02-16T09:18:20;96465.72;;;9.37;60.76
22647;BME280;11490;42.726;23.268;2023-02-16T09:20:45;96436.66;;;9.48;60.60
22647;BME280;11490;42.726;23.268;2023-02-16T09:23:11;96442.47;;;9.85;58.96
22647;BME280;11490;42.726;23.268;2023-02-16T09:25:39;96474.91;;;10.08;58.79
22647;BME280;11490;42.726;23.268;2023-02-16T09:28:06;96474.34;;;10.39;58.33
22647;BME280;11490;42.726;23.268;2023-02-16T09:30:34;96468.81;;;10.40;59.29
22647;BME280;11490;42.726;23.268;2023-02-16T09:33:02;96448.88;;;9.97;58.26
22647;BME280;11490;42.726;23.268;2023-02-16T09:35:27;96440.28;;;10.48;56.77
22647;BME280;11490;42.726;23.268;2023-02-16T09:37:52;96444.19;;;8.91;59.58
22647;BME280;11490;42.726;23.268;2023-02-16T09:40:18;96462.44;;;8.59;61.53
22647;BME280;11490;42.726;23.268;2023-02-16T09:45:46;96457.59;;;8.69;60.74
22647;BME280;11490;42.726;23.268;2023-02-16T09:48:40;96460.91;;;9.60;62.20
22647;BME280;11490;42.726;23.268;2023-02-16T09:51:09;96455.66;;;10.13;59.39
22647;BME280;11490;42.726;23.268;2023-02-16T09:53:38;96443.72;;;9.89;57.93
22647;BME280;11490;42.726;23.268;2023-02-16T09:58:47;96441.50;;;10.06;60.06
22647;BME280;11490;42.726;23.268;2023-02-16T10:01:37;96442.06;;;9.75;59.06
22647;BME280;11490;42.726;23.268;2023-02-16T10:04:14;96434.63;;;9.44;58.96
22647;BME280;11490;42.726;23.268;2023-02-16T10:09:26;96431.25;;;10.09;58.93
22647;BME280;11490;42.726;23.268;2023-02-16T10:14:44;96410.25;;;8.93;60.25
22647;BME280;11490;42.726;23.268;2023-02-16T10:17:37;96411.66;;;9.36;60.23
22647;BME280;11490;42.726;23.268;2023-02-16T10:20:33;96415.75;;;9.45;59.32
22647;BME280;11490;42.726;23.268;2023-02-16T10:28:21;96395.75;;;10.02;59.10
22647;BME280;11490;42.726;23.268;2023-02-16T10:31:00;96393.09;;;10.02;56.40
22647;BME280;11490;42.726;23.268;2023-02-16T10:33:44;96393.72;;;10.24;58.88
22647;BME280;11490;42.726;23.268;2023-02-16T10:36:37;96395.72;;;10.74;57.51
22647;BME280;11490;42.726;23.268;2023-02-16T10:42:02;96374.00;;;10.58;56.28
22647;BME280;11490;42.726;23.268;2023-02-16T10:44:39;96380.09;;;10.78;56.43
22647;BME280;11490;42.726;23.268;2023-02-16T10:47:20;96380.22;;;10.19;55.40
22647;BME280;11490;42.726;23.268;2023-02-16T10:49:47;96375.66;;;10.46;58.56
22647;BME280;11490;42.726;23.268;2023-02-16T10:52:14;96368.06;;;10.49;58.18
22647;BME280;11490;42.726;23.268;2023-02-16T10:54:39;96362.88;;;10.74;56.70
22647;BME280;11490;42.726;23.268;2023-02-16T10:57:18;96371.78;;;10.41;55.36
22647;BME280;11490;42.726;23.268;2023-02-16T10:59:47;96353.91;;;9.76;58.05
22647;BME280;11490;42.726;23.268;2023-02-16T11:04:44;96346.16;;;10.14;56.54
22647;BME280;11490;42.726;23.268;2023-02-16T11:07:11;96355.59;;;10.23;56.64
22647;BME280;11490;42.726;23.268;2023-02-16T11:09:40;96344.47;;;10.53;57.38
22647;BME280;11490;42.726;23.268;2023-02-16T11:12:30;96344.91;;;9.71;57.99
22647;BME280;11490;42.726;23.268;2023-02-16T11:17:48;96329.94;;;9.63;56.79
22647;BME280;11490;42.726;23.268;2023-02-16T11:20:49;96317.47;;;9.90;57.99
22647;BME280;11490;42.726;23.268;2023-02-16T11:23:27;96310.06;;;9.92;57.29
22647;BME280;11490;42.726;23.268;2023-02-16T11:33:56;96320.72;;;9.79;57.64
22647;BME280;11490;42.726;23.268;2023-02-16T11:36:43;96286.28;;;9.84;57.13
22647;BME280;11490;42.726;23.268;2023-02-16T11:44:52;96293.69;;;9.75;56.69
22647;BME280;11490;42.726;23.268;2023-02-16T11:47:59;96258.03;;;9.30;56.15
22647;BME280;11490;42.726;23.268;2023-02-16T11:50:31;96284.66;;;9.70;57.37
22647;BME280;11490;42.726;23.268;2023-02-16T11:53:13;96286.72;;;9.54;55.45
22647;BME280;11490;42.726;23.268;2023-02-16T11:55:42;96284.66;;;9.70;56.25
22647;BME280;11490;42.726;23.268;2023-02-16T11:58:26;96264.19;;;9.63;55.64
22647;BME280;11490;42.726;23.268;2023-02-16T12:01:22;96283.41;;;9.92;55.10
22647;BME280;11490;42.726;23.268;2023-02-16T12:09:50;96246.31;;;9.84;56.25
22647;BME280;11490;42.726;23.268;2023-02-16T12:12:59;96271.09;;;10.04;55.00
22647;BME280;11490;42.726;23.268;2023-02-16T12:32:03;96246.09;;;10.18;54.39
22647;BME280;11490;42.726;23.268;2023-02-16T12:34:49;96231.50;;;10.08;54.25
22647;BME280;11490;42.726;23.268;2023-02-16T12:37:31;96195.91;;;9.89;54.32
22647;BME280;11490;42.726;23.268;2023-02-16T12:40:19;96231.50;;;10.27;54.27
22647;BME280;11490;42.726;23.268;2023-02-16T12:45:35;96227.19;;;10.26;54.50
22647;BME280;11490;42.726;23.268;2023-02-16T12:50:41;96209.97;;;10.29;54.46
22647;BME280;11490;42.726;23.268;2023-02-16T12:53:18;96216.13;;;10.29;53.46
22647;BME280;11490;42.726;23.268;2023-02-16T12:55:50;96217.38;;;10.20;53.55
22647;BME280;11490;42.726;23.268;2023-02-16T12:58:37;96209.97;;;10.22;53.46
22647;BME280;11490;42.726;23.268;2023-02-16T13:01:19;96198.50;;;10.22;53.97
22647;BME280;11490;42.726;23.268;2023-02-16T13:06:49;96193.44;;;10.52;53.80
22647;BME280;11490;42.726;23.268;2023-02-16T13:09:36;96203.09;;;10.53;52.73
22647;BME280;11490;42.726;23.268;2023-02-16T13:12:14;96197.97;;;10.51;53.16
22647;BME280;11490;42.726;23.268;2023-02-16T13:15:00;96172.53;;;10.49;53.08
22647;BME280;11490;42.726;23.268;2023-02-16T13:17:34;96192.97;;;10.68;53.25
22647;BME280;11490;42.726;23.268;2023-02-16T13:20:05;96204.03;;;10.65;51.76
22647;BME280;11490;42.726;23.268;2023-02-16T13:39:09;96161.47;;;10.76;50.06
22647;BME280;11490;42.726;23.268;2023-02-16T13:44:44;96148.13;;;10.83;50.76
22647;BME280;11490;42.726;23.268;2023-02-16T13:47:16;96174.28;;;10.99;50.27
22647;BME280;11490;42.726;23.268;2023-02-16T13:49:42;96151.81;;;10.82;51.06
22647;BME280;11490;42.726;23.268;2023-02-16T13:52:41;96144.84;;;10.81;49.65
22647;BME280;11490;42.726;23.268;2023-02-16T13:55:26;96173.84;;;11.02;49.65
22647;BME280;11490;42.726;23.268;2023-02-16T13:57:57;96151.50;;;10.97;49.93
22647;BME280;11490;42.726;23.268;2023-02-16T14:03:08;96161.25;;;11.09;49.43
22647;BME280;11490;42.726;23.268;2023-02-16T14:05:37;96126.72;;;10.90;49.44
22647;BME280;11490;42.726;23.268;2023-02-16T14:08:30;96165.69;;;11.22;49.83
22647;BME280;11490;42.726;23.268;2023-02-16T14:11:13;96115.63;;;10.86;50.70
22647;BME280;11490;42.726;23.268;2023-02-16T14:16:29;96127.53;;;10.90;49.55
22647;BME280;11490;42.726;23.268;2023-02-16T14:19:00;96169.59;;;11.19;49.78
22647;BME280;11490;42.726;23.268;2023-02-16T14:21:39;96169.59;;;11.19;49.26
22647;BME280;11490;42.726;23.268;2023-02-16T14:24:24;96164.25;;;11.19;50.22
22647;BME280;11490;42.726;23.268;2023-02-16T14:29:39;96159.94;;;11.18;50.10
22647;BME280;11490;42.726;23.268;2023-02-16T14:32:26;96151.34;;;11.16;49.17
22647;BME280;11490;42.726;23.268;2023-02-16T14:35:07;96140.91;;;11.08;49.93
22647;BME280;11490;42.726;23.268;2023-02-16T14:37:40;96129.88;;;11.05;50.58
22647;BME280;11490;42.726;23.268;2023-02-16T14:40:20;96135.00;;;11.06;50.20
22647;BME280;11490;42.726;23.268;2023-02-16T14:42:50;96154.19;;;11.22;49.87
22647;BME280;11490;42.726;23.268;2023-02-16T14:56:43;96137.81;;;10.87;50.90
22647;BME280;11490;42.726;23.268;2023-02-16T15:00:06;96150.53;;;10.85;51.50
22647;BME280;11490;42.726;23.268;2023-02-16T15:02:25;96144.84;;;10.81;52.01
22647;BME280;11490;42.726;23.268;2023-02-16T15:04:53;96126.50;;;10.60;51.48
22647;BME280;11490;42.726;23.268;2023-02-16T15:07:23;96116.25;;;10.57;51.21
22647;BME280;11490;42.726;23.268;2023-02-16T15:09:54;96125.66;;;10.66;51.42
22647;BME280;11490;42.726;23.268;2023-02-16T15:12:26;96120.72;;;10.63;52.15
22647;BME280;11490;42.726;23.268;2023-02-16T15:14:54;96142.03;;;10.69;52.72
22647;BME280;11490;42.726;23.268;2023-02-16T15:17:34;96111.78;;;10.51;52.74
22647;BME280;11490;42.726;23.268;2023-02-16T15:22:58;96134.16;;;10.50;53.51
22647;BME280;11490;42.726;23.268;2023-02-16T15:25:28;96134.41;;;10.41;54.31
22647;BME280;11490;42.726;23.268;2023-02-16T15:28:20;96144.34;;;10.28;54.91
22647;BME280;11490;42.726;23.268;2023-02-16T15:31:15;96138.81;;;10.16;55.47
22647;BME280;11490;42.726;23.268;2023-02-16T15:33:52;96093.25;;;9.80;55.63
22647;BME280;11490;42.726;23.268;2023-02-16T15:36:19;96108.22;;;9.81;55.71